Share

Aberhosan, United Kingdom

Aberllefenni - Corris (IPOWYSMA2) Elev 518 ft | 52.67 °N, 3.82 °W | Change Station

Current weather conditions updated 6 minutes ago

Partly Cloudy
Partly Cloudy
52.3 °F
Feels Like 52.3 °F
N
1.0
Wind Variable Wind from NNE
Gusts 9.0 mph
Sunrise 6:10 AM
Sunset 8:18 PM
Moon Waning Gibbous

Today is forecast to be nearly the same temperature as yesterday.

Pressure 30.21 in
Visibility 6.2 miles
Clouds Few 3500 ft
Dew Point 51 °F
Humidity 95%
Rainfall 0.00 in
Snow Depth Not available.
UV 5 out of 16
Pollen Not available.
Air Quality Not available.
Flu Activity Not available.
METAR EGNR 181020Z 07005KT 020V120 9999 FEW035 11/02 Q1023

More Conditions Fewer Conditions

Pressure 30.21 in
Visibility 6.2 miles
Clouds Few 3500 ft
Dew Point 51 °F
Humidity 95%
Rainfall 0.00 in
Snow Depth Not available.
UV 5 out of 16
Pollen Not available.
Air Quality Not available.
Flu Activity Not available.
METAR EGNR 181020Z 07005KT 020V120 9999 FEW035 11/02 Q1023

More Conditions Fewer Conditions

10-Day Forecast

Almanac

Astronomy

Apr. 18, 2014 Rise Set
Actual Time 6:10 AM BST 8:18 PM BST
Civil Twilight 5:33 AM BST 8:55 PM BST
Nautical Twilight 4:47 AM BST 9:42 PM BST
Astronomical Twilight 3:54 AM BST 10:36 PM BST
Moon No Moon Rise 8:03 AM BST
Length of Visible Light 15h 21m
Length of Day
14h 08m
Tomorrow will be 3m 56s longer.
Waning Gibbous, 89% of the Moon is Illuminated
Today
Waning Gibbous
Apr 22
Last Quarter
Apr 29
New
May 6
First Quarter
May 14
Full

Yesterday's Extremes

Country Highs Country Lows

Community

  • SUNRISE THROUGH THE TREES.
    SUNRISE THROUGH THE TREES.
  • Dog Wood Blossoms
    Dog Wood Blossoms
  • Morning Light
    Morning Light
  • New Day
    New Day
  • Lake Michigan Sunrise
    Lake Michigan Sunrise

WunderPhotos

Upload Photos

1,702,306 photos uploaded!

Nearby

Snow Depth

Not available.

Coastal Water Temperatures

Place Temperature
No Stations Reporting

Earthquake Activity

City Distance Mag. Time & Date
No recent earthquake activity has been reported nearby.
Minimum magnitude displayed is 2.5.

Nearby Weather Stations

Station Location Temp. Windchill Dew Point Humidity Wind Precip. Elev Updated Type
Aberllefenni - Corris, Machynlleth 52.3 °F - 51 °F 95% NNE  at  1.0 mph 0.00 in / hr 518 ft 11:30 AM BST Normal
Woodhouse, St Harmon 48.5 °F 48 °F 40 °F 73% NE  at  3.0 mph 0.00 in / hr 1089 ft 11:29 AM BST Normal
Llanllwchaiarn, Newtown 55.8 °F - 41 °F 58% North  at  3.1 mph 0.00 in / hr 535 ft 11:35 AM BST Normal
LLANILAR, ABERYSTWYTH 58.8 °F - 44 °F 57% NNW  at  4.0 mph 0.00 in / hr 115 ft 11:36 AM BST Rapid Fire
Montgomery 49.1 °F 49 °F 41 °F 74% ENE  at  2.0 mph 0.00 in / hr 318 ft 11:29 AM BST Normal

Show More Stations Show Fewer Stations

What do you think?

We're not finished. Please let us know what you like, what you don't like, and what you are still missing.